Time;durP1;ratioP1;P1;durP2;ratioP2;P2;SDS_P1;SDS_P2;PMS_P1;PMS_P2;Temp;Humidity;BMP_temperature;BMP_pressure;BME280_temperature;BME280_humidity;BME280_pressure;Samples;Min_cycle;Max_cycle;Signal;HPM_P1;HPM_P2
2021/09/20 00:00:24;;;;;;;4.87;4.47;;;16.20;99.90;;;;;;4999934;28;20176;-78
2021/09/20 00:02:49;;;;;;;5.10;4.70;;;16.20;99.90;;;;;;5033659;28;20239;-80
2021/09/20 00:05:15;;;;;;;6.07;5.47;;;16.20;99.90;;;;;;5016145;28;20509;-78
2021/09/20 00:07:41;;;;;;;5.23;4.73;;;16.10;99.90;;;;;;5015877;28;20220;-78
2021/09/20 00:10:09;;;;;;;5.47;4.97;;;16.10;99.90;;;;;;5033336;28;20529;-77
2021/09/20 00:12:35;;;;;;;5.10;4.70;;;16.10;99.90;;;;;;5015756;28;20162;-77
2021/09/20 00:15:02;;;;;;;5.40;5.00;;;16.10;99.90;;;;;;5032081;28;20624;-77
2021/09/20 00:17:28;;;;;;;4.40;4.00;;;16.00;99.90;;;;;;5003859;28;21046;-77
2021/09/20 00:19:53;;;;;;;5.17;4.67;;;16.00;99.90;;;;;;5006009;28;20620;-78
2021/09/20 00:22:19;;;;;;;4.30;3.83;;;16.00;99.90;;;;;;5025141;28;20229;-78
2021/09/20 00:24:45;;;;;;;5.70;5.20;;;16.00;99.90;;;;;;4999503;28;20177;-78
2021/09/20 00:27:12;;;;;;;5.20;4.80;;;16.00;99.90;;;;;;5023345;28;20189;-78
2021/09/20 00:29:38;;;;;;;5.60;5.07;;;15.90;99.90;;;;;;5015060;28;20205;-78
2021/09/20 00:32:04;;;;;;;5.23;4.73;;;15.90;99.90;;;;;;5033242;28;20614;-78
2021/09/20 00:34:30;;;;;;;4.73;4.33;;;15.80;99.90;;;;;;5018730;28;20249;-78
2021/09/20 00:36:56;;;;;;;5.27;4.77;;;15.80;99.90;;;;;;5015195;28;20632;-78
2021/09/20 00:39:22;;;;;;;4.80;4.40;;;15.70;99.90;;;;;;5032687;28;20564;-78
2021/09/20 00:41:48;;;;;;;5.43;5.00;;;15.70;99.90;;;;;;5015287;28;20568;-77
2021/09/20 00:44:14;;;;;;;5.80;4.87;;;15.70;99.90;;;;;;5032932;28;20166;-78
2021/09/20 00:46:39;;;;;;;5.20;4.70;;;15.60;99.90;;;;;;5032740;28;20596;-78
2021/09/20 00:49:06;;;;;;;5.80;5.30;;;15.60;99.90;;;;;;5032518;28;20196;-78
2021/09/20 00:51:32;;;;;;;5.07;4.67;;;15.50;99.90;;;;;;5032789;28;20173;-78
2021/09/20 00:53:58;;;;;;;5.77;5.20;;;15.50;99.90;;;;;;5032684;28;20568;-77
2021/09/20 00:56:24;;;;;;;6.20;5.70;;;15.50;99.90;;;;;;5014742;28;20661;-78
2021/09/20 00:58:50;;;;;;;4.83;4.43;;;15.40;99.90;;;;;;5032437;28;20572;-77
2021/09/20 01:01:16;;;;;;;4.73;4.33;;;15.40;99.90;;;;;;5032368;28;20652;-77
2021/09/20 01:03:41;;;;;;;6.28;5.65;;;15.40;99.90;;;;;;5014750;28;20166;-77
2021/09/20 01:06:09;;;;;;;5.60;5.10;;;15.40;99.90;;;;;;5014842;28;20174;-78
2021/09/20 01:08:35;;;;;;;5.25;4.72;;;15.40;99.90;;;;;;5032195;28;20173;-77
2021/09/20 01:11:00;;;;;;;4.93;4.53;;;15.40;99.90;;;;;;5003254;28;20181;-78
2021/09/20 01:13:26;;;;;;;5.20;4.80;;;15.40;99.90;;;;;;5032661;28;20181;-77
2021/09/20 01:15:53;;;;;;;8.10;4.87;;;15.40;99.90;;;;;;5032082;28;20606;-77
2021/09/20 01:18:20;;;;;;;4.72;4.32;;;15.30;99.90;;;;;;5031936;28;20181;-77
2021/09/20 01:20:46;;;;;;;5.60;5.10;;;15.30;99.90;;;;;;5014368;28;20312;-77
2021/09/20 01:23:11;;;;;;;5.00;4.50;;;15.30;99.90;;;;;;5032396;28;20173;-78
2021/09/20 01:25:37;;;;;;;5.17;4.67;;;15.20;99.90;;;;;;5032169;28;20177;-77
2021/09/20 01:28:04;;;;;;;5.00;4.60;;;15.20;99.90;;;;;;5014039;28;20193;-77
2021/09/20 01:30:29;;;;;;;5.47;4.97;;;15.20;99.90;;;;;;5032008;28;20596;-78
2021/09/20 01:32:55;;;;;;;5.30;4.90;;;15.20;99.90;;;;;;5032080;28;20624;-78
2021/09/20 01:35:23;;;;;;;6.50;5.85;;;15.10;99.90;;;;;;5032002;28;20193;-78
2021/09/20 01:37:49;;;;;;;4.73;4.23;;;15.10;99.90;;;;;;5013818;28;20193;-77
2021/09/20 01:40:16;;;;;;;5.45;4.95;;;15.00;99.90;;;;;;5032063;28;20560;-78
2021/09/20 01:42:42;;;;;;;5.20;4.63;;;15.00;99.90;;;;;;5031843;28;20671;-78
2021/09/20 01:45:10;;;;;;;6.53;4.57;;;15.00;99.90;;;;;;5014366;28;21096;-77
2021/09/20 01:47:36;;;;;;;5.15;4.65;;;15.00;99.90;;;;;;5035117;28;20237;-77
2021/09/20 01:50:03;;;;;;;6.00;5.30;;;15.00;99.90;;;;;;5032887;28;20181;-77
2021/09/20 01:52:28;;;;;;;5.60;5.10;;;14.90;99.90;;;;;;5031690;28;20166;-77
2021/09/20 01:54:55;;;;;;;5.95;5.22;;;14.90;99.90;;;;;;5031779;28;20185;-77
2021/09/20 01:57:23;;;;;;;5.90;4.93;;;14.90;99.90;;;;;;5031335;28;20738;-77
2021/09/20 01:59:50;;;;;;;5.25;4.78;;;14.90;99.90;;;;;;5013773;28;20174;-77
2021/09/20 02:02:16;;;;;;;4.63;4.22;;;14.90;99.90;;;;;;5031422;28;20172;-77
2021/09/20 02:04:41;;;;;;;4.60;4.13;;;14.80;99.90;;;;;;5031713;28;20522;-77
2021/09/20 02:07:07;;;;;;;5.13;4.63;;;14.80;99.90;;;;;;5014035;28;20788;-77
2021/09/20 02:09:33;;;;;;;5.20;4.27;;;14.80;99.90;;;;;;5013358;28;20235;-77
2021/09/20 02:11:59;;;;;;;5.50;5.00;;;14.80;99.90;;;;;;5031503;28;20223;-77
2021/09/20 02:14:24;;;;;;;4.83;4.40;;;14.80;99.90;;;;;;5032114;28;20177;-77
2021/09/20 02:16:50;;;;;;;5.87;4.87;;;14.80;99.90;;;;;;5035682;28;20185;-77
2021/09/20 02:19:16;;;;;;;4.80;4.37;;;14.80;99.90;;;;;;5035094;28;20173;-77
2021/09/20 02:21:41;;;;;;;5.07;4.57;;;14.70;99.90;;;;;;5017877;28;20209;-77
2021/09/20 02:24:07;;;;;;;4.40;3.50;;;14.70;99.90;;;;;;5036126;28;20588;-77
2021/09/20 02:26:33;;;;;;;4.93;4.43;;;14.70;99.90;;;;;;5020210;28;21095;-77
2021/09/20 02:29:00;;;;;;;5.10;4.60;;;14.70;99.90;;;;;;5017203;28;20173;-77
2021/09/20 02:31:26;;;;;;;5.30;4.50;;;14.70;99.90;;;;;;5035648;28;20177;-77
2021/09/20 02:33:51;;;;;;;5.47;4.97;;;14.70;99.90;;;;;;5035185;28;20264;-77
2021/09/20 02:36:17;;;;;;;5.67;5.07;;;14.60;99.90;;;;;;5017508;28;20288;-77
2021/09/20 02:38:43;;;;;;;5.30;4.80;;;14.60;99.90;;;;;;5035040;28;20178;-77
2021/09/20 02:41:08;;;;;;;5.30;4.80;;;14.60;99.90;;;;;;5035313;28;20232;-76
2021/09/20 02:43:35;;;;;;;5.53;5.03;;;14.60;99.90;;;;;;5017650;28;20524;-77
2021/09/20 02:46:01;;;;;;;5.75;5.18;;;14.60;99.90;;;;;;5017227;28;20181;-76
2021/09/20 02:48:26;;;;;;;6.60;5.83;;;14.60;99.90;;;;;;5034911;28;20205;-77
2021/09/20 02:50:52;;;;;;;5.47;4.80;;;14.60;99.90;;;;;;5035056;28;20667;-77
2021/09/20 02:53:18;;;;;;;5.70;4.70;;;14.50;99.90;;;;;;5035679;28;20194;-76
2021/09/20 02:55:44;;;;;;;4.73;4.33;;;14.50;99.90;;;;;;5034854;28;20231;-77
2021/09/20 02:58:10;;;;;;;6.00;5.13;;;14.50;99.90;;;;;;5053405;22;20212;-75
2021/09/20 03:00:36;;;;;;;5.90;5.30;;;14.50;99.90;;;;;;5008701;28;20232;-75
2021/09/20 03:03:02;;;;;;;5.47;5.00;;;14.50;99.90;;;;;;4997679;28;20171;-75
2021/09/20 03:05:28;;;;;;;5.20;4.80;;;14.50;99.90;;;;;;4995387;28;20601;-75
2021/09/20 03:07:54;;;;;;;5.30;4.73;;;14.50;99.90;;;;;;4994860;28;20229;-75
2021/09/20 03:10:19;;;;;;;4.90;4.40;;;14.40;99.90;;;;;;4977710;28;20573;-76
2021/09/20 03:12:46;;;;;;;5.17;4.70;;;14.40;99.90;;;;;;4977831;28;20175;-76
2021/09/20 03:15:12;;;;;;;5.20;4.70;;;14.40;99.90;;;;;;4995184;28;20625;-76
2021/09/20 03:17:38;;;;;;;5.40;4.90;;;14.40;99.90;;;;;;4995050;28;20186;-76
2021/09/20 03:20:05;;;;;;;5.50;4.95;;;14.50;99.90;;;;;;4994991;28;20191;-76
2021/09/20 03:22:31;;;;;;;7.65;5.00;;;14.40;99.90;;;;;;4999108;28;20167;-76
2021/09/20 03:24:56;;;;;;;5.90;5.40;;;14.40;99.90;;;;;;4977969;28;20659;-76
2021/09/20 03:27:22;;;;;;;5.17;4.67;;;14.40;99.90;;;;;;4994640;28;20182;-76
2021/09/20 03:29:48;;;;;;;6.30;5.70;;;14.40;99.90;;;;;;4994840;28;20718;-76
2021/09/20 03:32:13;;;;;;;5.77;5.13;;;14.40;99.90;;;;;;4994845;28;20636;-76
2021/09/20 03:34:39;;;;;;;6.77;5.23;;;14.30;99.90;;;;;;4994821;28;20167;-76
2021/09/20 03:37:05;;;;;;;5.47;5.07;;;14.30;99.90;;;;;;4994612;28;20199;-77
2021/09/20 03:39:31;;;;;;;4.40;4.10;;;14.30;99.90;;;;;;4994556;28;20182;-77
2021/09/20 03:41:56;;;;;;;5.13;4.63;;;14.30;99.90;;;;;;4977136;28;20601;-76
2021/09/20 03:44:22;;;;;;;5.53;5.03;;;14.30;99.90;;;;;;4994823;28;20159;-76
2021/09/20 03:46:48;;;;;;;5.70;5.13;;;14.30;99.90;;;;;;4976495;28;20174;-76
2021/09/20 03:49:14;;;;;;;5.03;4.57;;;14.30;99.90;;;;;;4994122;28;20191;-76
2021/09/20 03:51:40;;;;;;;5.43;3.97;;;14.30;99.90;;;;;;4994980;28;20537;-75
2021/09/20 03:54:06;;;;;;;5.10;4.60;;;14.40;99.90;;;;;;4995583;28;20178;-76
2021/09/20 03:56:32;;;;;;;6.10;5.33;;;14.30;99.90;;;;;;4994413;28;20268;-76
2021/09/20 03:58:57;;;;;;;4.73;4.33;;;14.40;99.90;;;;;;4995027;28;20281;-76
2021/09/20 04:01:23;;;;;;;4.73;4.30;;;14.40;99.90;;;;;;4996346;28;20225;-76
2021/09/20 04:03:49;;;;;;;5.43;4.60;;;14.50;99.90;;;;;;4994105;28;20535;-76
2021/09/20 04:06:14;;;;;;;6.00;5.40;;;14.50;99.90;;;;;;4976937;28;20191;-76
2021/09/20 04:08:40;;;;;;;5.70;4.83;;;14.50;99.90;;;;;;4976271;28;20853;-76
2021/09/20 04:11:06;;;;;;;4.70;4.20;;;14.50;99.90;;;;;;4976645;28;20644;-76
2021/09/20 04:13:32;;;;;;;5.20;4.23;;;14.60;99.90;;;;;;4993272;28;20585;-76
2021/09/20 04:15:58;;;;;;;5.15;4.65;;;14.60;99.90;;;;;;4993931;28;20610;-76
2021/09/20 04:18:27;;;;;;;4.40;4.00;;;14.60;99.90;;;;;;4993596;28;20241;-76
2021/09/20 04:20:54;;;;;;;4.50;4.10;;;14.70;99.90;;;;;;4993759;28;20167;-75
2021/09/20 04:23:22;;;;;;;5.70;5.13;;;14.70;99.90;;;;;;4976481;28;20226;-76
2021/09/20 04:25:49;;;;;;;5.47;4.97;;;14.60;99.90;;;;;;4994024;28;20175;-77
2021/09/20 04:28:15;;;;;;;4.90;4.37;;;14.70;99.90;;;;;;4993447;28;20198;-77
2021/09/20 04:30:44;;;;;;;5.40;4.88;;;14.70;99.90;;;;;;4994154;28;20578;-76
2021/09/20 04:33:14;;;;;;;5.28;4.78;;;14.70;99.90;;;;;;4994015;28;20510;-76
2021/09/20 04:35:41;;;;;;;5.93;5.32;;;14.70;99.90;;;;;;4994550;28;20195;-77
2021/09/20 04:38:07;;;;;;;6.22;5.28;;;14.70;99.90;;;;;;4979417;28;20163;-77
2021/09/20 04:40:34;;;;;;;6.28;5.05;;;14.70;99.90;;;;;;4993938;28;20250;-77
2021/09/20 04:43:01;;;;;;;5.18;4.72;;;14.70;99.90;;;;;;4993658;28;20171;-77
2021/09/20 04:45:27;;;;;;;5.43;4.70;;;14.70;99.90;;;;;;4993433;28;20174;-76
2021/09/20 04:47:52;;;;;;;6.07;5.53;;;14.70;99.90;;;;;;4975958;28;20183;-76
2021/09/20 04:50:18;;;;;;;4.83;4.30;;;14.70;99.90;;;;;;4993483;28;20578;-77
2021/09/20 04:52:44;;;;;;;5.23;4.73;;;14.60;99.90;;;;;;4975980;28;20678;-77
2021/09/20 04:55:10;;;;;;;6.50;5.90;;;14.60;99.90;;;;;;4993110;28;20199;-77
2021/09/20 04:57:36;;;;;;;4.60;4.20;;;14.50;99.90;;;;;;4993298;28;20167;-77
2021/09/20 05:00:05;;;;;;;4.63;4.22;;;14.50;99.90;;;;;;4973254;28;20541;-77
2021/09/20 05:02:30;;;;;;;5.30;4.80;;;14.50;99.90;;;;;;4993169;28;20305;-77
2021/09/20 05:04:56;;;;;;;5.37;4.90;;;14.40;99.90;;;;;;4993347;28;20768;-77
2021/09/20 05:07:22;;;;;;;4.73;4.33;;;14.40;99.90;;;;;;4996427;28;20178;-77
2021/09/20 05:09:47;;;;;;;5.83;4.97;;;14.40;99.90;;;;;;5007335;28;20208;-77
2021/09/20 05:12:13;;;;;;;5.77;4.50;;;14.40;99.90;;;;;;5003529;28;20177;-77
2021/09/20 05:14:39;;;;;;;6.67;5.20;;;14.40;99.90;;;;;;5014327;28;20190;-77
2021/09/20 05:17:05;;;;;;;5.30;4.27;;;14.40;99.90;;;;;;5003404;28;20603;-77
2021/09/20 05:19:31;;;;;;;5.10;4.60;;;14.40;99.90;;;;;;5004497;28;20273;-76
2021/09/20 05:21:57;;;;;;;5.17;4.63;;;14.40;99.90;;;;;;5006757;28;20313;-76
2021/09/20 05:24:22;;;;;;;5.25;4.75;;;14.30;99.90;;;;;;5004183;28;20173;-76
2021/09/20 05:26:48;;;;;;;6.30;4.60;;;14.40;99.90;;;;;;5004146;28;20561;-76
2021/09/20 05:29:14;;;;;;;3.80;3.37;;;14.40;99.90;;;;;;5003906;28;20214;-76
2021/09/20 05:31:40;;;;;;;4.83;4.33;;;14.40;99.90;;;;;;5012316;28;20597;-77
2021/09/20 05:34:06;;;;;;;4.50;4.13;;;14.40;99.90;;;;;;5012352;28;20167;-77
2021/09/20 05:36:32;;;;;;;5.90;4.93;;;14.40;99.90;;;;;;5012303;28;20648;-77
2021/09/20 05:38:57;;;;;;;5.80;4.87;;;14.40;99.90;;;;;;5011845;28;20186;-77
2021/09/20 05:41:23;;;;;;;5.83;5.20;;;14.40;99.90;;;;;;5012421;28;20895;-77
2021/09/20 05:43:49;;;;;;;4.30;3.90;;;14.40;99.90;;;;;;5012264;28;20162;-77
2021/09/20 05:46:14;;;;;;;5.30;4.53;;;14.50;99.90;;;;;;5011739;28;20589;-77
2021/09/20 05:48:41;;;;;;;5.23;4.00;;;14.50;99.90;;;;;;4993804;28;20597;-78
2021/09/20 05:51:07;;;;;;;5.22;4.30;;;14.60;99.90;;;;;;5010847;28;20586;-77
2021/09/20 05:53:33;;;;;;;4.72;4.10;;;14.60;99.90;;;;;;5003713;28;20182;-77
2021/09/20 05:55:59;;;;;;;5.20;4.70;;;14.70;99.90;;;;;;5007567;28;20208;-78
2021/09/20 05:58:25;;;;;;;5.33;4.30;;;14.70;99.90;;;;;;5007882;28;21044;-77
2021/09/20 06:00:51;;;;;;;5.47;4.30;;;14.80;99.90;;;;;;5000785;28;20539;-78
2021/09/20 06:03:17;;;;;;;4.17;3.77;;;14.90;99.90;;;;;;4985257;28;20179;-78
2021/09/20 06:05:43;;;;;;;4.33;3.43;;;15.00;99.90;;;;;;4978816;28;20618;-78
2021/09/20 06:08:09;;;;;;;4.97;4.17;;;15.10;99.90;;;;;;4997621;28;20629;-77
2021/09/20 06:10:36;;;;;;;5.50;3.80;;;15.10;99.90;;;;;;5005272;28;20605;-77
2021/09/20 06:13:04;;;;;;;5.37;4.20;;;15.30;99.90;;;;;;4998592;28;20689;-77
2021/09/20 06:15:30;;;;;;;4.17;3.77;;;15.30;99.90;;;;;;4980556;28;21075;-78
2021/09/20 06:17:57;;;;;;;3.90;3.60;;;15.40;99.90;;;;;;4994124;28;20670;-78
2021/09/20 06:20:23;;;;;;;4.30;3.90;;;15.40;99.90;;;;;;4991918;28;20577;-77
2021/09/20 06:22:49;;;;;;;5.10;4.60;;;15.50;99.90;;;;;;4991813;28;20570;-78
2021/09/20 06:25:15;;;;;;;4.53;3.97;;;15.50;99.90;;;;;;4991735;28;20562;-77
2021/09/20 06:27:41;;;;;;;5.27;4.60;;;15.50;99.90;;;;;;4996271;28;20597;-77
2021/09/20 06:30:09;;;;;;;4.80;3.50;;;15.60;99.90;;;;;;4974693;28;20602;-77
2021/09/20 06:32:35;;;;;;;5.80;3.80;;;15.60;99.90;;;;;;4991627;28;20570;-76
2021/09/20 06:35:01;;;;;;;4.40;4.00;;;15.70;99.90;;;;;;4991429;28;20671;-76
2021/09/20 06:37:27;;;;;;;4.53;3.20;;;15.70;99.90;;;;;;4991541;28;20665;-76
2021/09/20 06:39:52;;;;;;;4.50;3.57;;;15.70;99.90;;;;;;4991234;28;20195;-76
2021/09/20 06:42:18;;;;;;;4.30;3.90;;;15.80;99.90;;;;;;4973895;28;20175;-76
2021/09/20 06:44:44;;;;;;;6.00;4.20;;;15.80;99.90;;;;;;4991683;28;20207;-77
2021/09/20 06:47:10;;;;;;;3.50;3.20;;;15.80;99.90;;;;;;4991333;28;20237;-76
2021/09/20 06:49:36;;;;;;;5.20;4.70;;;15.90;99.90;;;;;;4991246;28;20191;-77
2021/09/20 06:52:02;;;;;;;5.20;3.30;;;16.00;99.90;;;;;;4991454;28;20560;-77
2021/09/20 06:54:28;;;;;;;4.33;3.87;;;16.10;99.90;;;;;;4991721;28;20598;-76
2021/09/20 06:56:54;;;;;;;5.33;3.47;;;16.30;99.90;;;;;;4991360;28;20625;-76
2021/09/20 06:59:20;;;;;;;4.87;4.43;;;16.40;99.90;;;;;;4990354;28;20622;-76
2021/09/20 07:01:46;;;;;;;4.10;3.57;;;16.50;99.90;;;;;;4994255;28;20166;-76
2021/09/20 07:04:12;;;;;;;4.47;3.77;;;16.70;99.90;;;;;;4995257;28;20237;-75
2021/09/20 07:06:38;;;;;;;3.87;3.10;;;16.80;99.90;;;;;;4977777;28;20980;-76
2021/09/20 07:09:03;;;;;;;5.10;3.80;;;17.00;99.90;;;;;;4977038;28;20602;-77
2021/09/20 07:11:30;;;;;;;3.87;3.27;;;17.10;99.90;;;;;;4977645;28;20578;-76
2021/09/20 07:13:56;;;;;;;4.20;3.70;;;17.30;99.90;;;;;;4995049;28;20266;-76
2021/09/20 07:16:21;;;;;;;3.70;3.40;;;17.70;99.90;;;;;;4994840;28;20717;-77
2021/09/20 07:18:47;;;;;;;8.20;3.40;;;18.30;99.90;;;;;;4977412;28;20738;-76
2021/09/20 07:21:13;;;;;;;3.77;3.47;;;18.90;99.90;;;;;;4994776;28;20226;-76
2021/09/20 07:23:38;;;;;;;3.93;2.80;;;19.30;99.90;;;;;;4994979;28;20623;-76
2021/09/20 07:26:05;;;;;;;3.43;3.13;;;19.60;99.90;;;;;;4994638;28;20172;-76
2021/09/20 07:28:31;;;;;;;3.53;3.03;;;19.80;99.90;;;;;;4994546;28;20595;-76
2021/09/20 07:30:56;;;;;;;6.27;3.43;;;20.30;99.90;;;;;;4977232;28;20594;-76
2021/09/20 07:33:22;;;;;;;3.50;2.67;;;21.00;99.90;;;;;;4961213;28;20175;-76
2021/09/20 07:35:48;;;;;;;3.60;3.30;;;21.40;99.90;;;;;;4994547;28;20230;-76
2021/09/20 07:38:14;;;;;;;2.90;2.60;;;21.90;99.90;;;;;;4994030;28;20535;-76
2021/09/20 07:40:39;;;;;;;4.00;3.67;;;22.40;99.90;;;;;;4994732;28;20565;-76
2021/09/20 07:43:05;;;;;;;3.70;3.40;;;22.50;97.80;;;;;;4994406;28;20167;-76
2021/09/20 07:45:32;;;;;;;4.00;2.53;;;22.50;97.50;;;;;;4994433;28;20190;-76
2021/09/20 07:47:58;;;;;;;4.77;2.90;;;22.40;97.80;;;;;;4974993;28;20566;-76
2021/09/20 07:50:25;;;;;;;3.20;2.90;;;22.20;96.20;;;;;;4993182;28;20569;-76
2021/09/20 07:52:51;;;;;;;4.43;3.03;;;22.00;95.90;;;;;;4993051;28;20163;-77
2021/09/20 07:55:18;;;;;;;4.63;2.77;;;21.80;96.00;;;;;;4992848;28;20633;-77
2021/09/20 07:57:44;;;;;;;3.30;3.10;;;21.90;96.20;;;;;;4993062;28;20981;-77
2021/09/20 08:00:11;;;;;;;3.57;2.83;;;22.00;96.40;;;;;;4989817;28;20638;-76
2021/09/20 08:02:37;;;;;;;4.03;2.37;;;22.20;96.60;;;;;;4993421;28;20566;-77
2021/09/20 08:05:04;;;;;;;5.97;3.47;;;22.50;96.30;;;;;;5002409;28;21155;-77
2021/09/20 08:07:29;;;;;;;2.97;2.63;;;22.70;95.40;;;;;;5013579;28;20177;-77
2021/09/20 08:09:55;;;;;;;3.33;3.00;;;23.00;95.70;;;;;;5012911;28;20613;-77
2021/09/20 08:12:21;;;;;;;3.43;2.87;;;23.20;94.30;;;;;;5012485;28;20281;-77
2021/09/20 08:14:46;;;;;;;3.03;2.60;;;23.30;94.10;;;;;;5013379;28;20261;-77
2021/09/20 08:17:12;;;;;;;2.57;2.30;;;23.40;93.60;;;;;;5015485;28;20221;-76
2021/09/20 08:19:38;;;;;;;2.50;2.30;;;23.60;94.00;;;;;;5011937;28;20213;-77
2021/09/20 08:22:05;;;;;;;3.10;2.80;;;23.90;93.90;;;;;;5013006;28;20257;-78
2021/09/20 08:24:32;;;;;;;7.30;2.87;;;24.40;94.30;;;;;;5013361;28;20652;-77
2021/09/20 08:26:57;;;;;;;2.73;2.43;;;24.90;92.60;;;;;;5012793;28;20608;-77
2021/09/20 08:29:23;;;;;;;2.63;2.33;;;25.50;93.30;;;;;;5011325;28;21116;-77
2021/09/20 08:31:50;;;;;;;2.77;1.83;;;26.20;93.30;;;;;;5012597;28;20232;-77
2021/09/20 08:34:15;;;;;;;8.43;2.87;;;26.90;92.00;;;;;;5013154;28;20174;-77
2021/09/20 08:36:41;;;;;;;2.83;2.30;;;27.40;90.20;;;;;;5011503;28;20621;-77
2021/09/20 08:39:07;;;;;;;11.27;3.00;;;28.00;90.00;;;;;;5012853;28;20530;-78
2021/09/20 08:41:33;;;;;;;3.60;2.70;;;28.60;88.10;;;;;;5013064;28;20568;-78
2021/09/20 08:44:00;;;;;;;3.53;2.60;;;29.10;80.40;;;;;;4995072;28;20178;-77
2021/09/20 08:46:26;;;;;;;14.30;3.70;;;29.50;79.90;;;;;;4993310;28;20199;-77
2021/09/20 08:48:52;;;;;;;2.40;1.77;;;30.00;79.50;;;;;;4992878;28;20623;-77
2021/09/20 08:51:19;;;;;;;5.17;2.10;;;30.40;77.50;;;;;;4975879;28;20196;-76
2021/09/20 08:53:50;;;;;;;2.93;2.63;;;30.70;73.90;;;;;;4997035;28;20620;-77
2021/09/20 08:56:16;;;;;;;3.60;2.07;;;31.10;70.20;;;;;;5001954;28;20800;-77
2021/09/20 08:58:42;;;;;;;2.13;1.80;;;31.30;69.50;;;;;;4990672;28;21211;-78
2021/09/20 09:01:08;;;;;;;2.40;2.20;;;31.30;68.50;;;;;;4992907;28;20577;-77
2021/09/20 09:03:33;;;;;;;2.27;2.07;;;31.10;64.60;;;;;;4992671;28;20184;-77
2021/09/20 09:05:59;;;;;;;2.17;1.60;;;31.00;64.30;;;;;;4991540;28;20182;-77
2021/09/20 09:08:34;;;;;;;3.50;2.20;;;31.10;63.20;;;;;;4992023;28;20204;-77
2021/09/20 09:11:12;;;;;;;2.83;2.20;;;31.10;57.00;;;;;;4991479;28;20575;-77
2021/09/20 09:13:44;;;;;;;2.30;1.83;;;30.70;58.10;;;;;;4992239;28;20562;-77
2021/09/20 09:16:17;;;;;;;2.53;2.33;;;30.30;57.60;;;;;;4991218;28;20973;-77
2021/09/20 09:19:08;;;;;;;3.40;3.10;;;30.00;56.90;;;;;;4991151;28;20636;-78
2021/09/20 09:21:43;;;;;;;2.73;2.53;;;29.40;55.90;;;;;;4975484;28;21222;-77
2021/09/20 09:24:11;;;;;;;2.40;2.20;;;28.70;55.90;;;;;;4991265;28;20558;-77
2021/09/20 09:26:52;;;;;;;3.30;3.10;;;28.50;58.00;;;;;;4991325;28;20576;-77
2021/09/20 09:29:18;;;;;;;2.27;1.90;;;28.30;57.40;;;;;;5008093;28;20643;-80
2021/09/20 09:31:53;;;;;;;2.70;2.00;;;28.30;59.20;;;;;;5016180;28;20562;-78
2021/09/20 09:34:20;;;;;;;2.60;2.13;;;28.60;59.20;;;;;;5012011;28;21150;-80
2021/09/20 09:36:46;;;;;;;2.30;2.10;;;29.10;60.00;;;;;;4994201;28;21277;-79
2021/09/20 09:39:12;;;;;;;1.90;1.77;;;29.10;58.40;;;;;;5011794;28;20724;-79
2021/09/20 09:41:41;;;;;;;3.53;1.90;;;28.70;56.70;;;;;;5010466;28;20619;-81
2021/09/20 09:44:13;;;;;;;2.73;2.40;;;28.40;56.60;;;;;;5012308;28;20577;-81
2021/09/20 09:46:41;;;;;;;2.60;2.30;;;27.70;55.30;;;;;;4994162;28;21125;-80
2021/09/20 09:49:15;;;;;;;2.40;2.13;;;27.20;56.10;;;;;;5011413;28;20605;-79
2021/09/20 09:52:01;;;;;;;2.93;2.13;;;26.90;55.90;;;;;;5011210;28;20570;-79
2021/09/20 09:54:40;;;;;;;2.50;2.30;;;26.60;57.40;;;;;;5011755;28;20565;-79
2021/09/20 09:57:19;;;;;;;2.50;1.97;;;26.40;57.40;;;;;;5011261;28;20899;-79
2021/09/20 09:59:56;;;;;;;2.53;2.17;;;26.10;57.60;;;;;;5009961;28;20616;-80
2021/09/20 10:02:34;;;;;;;2.43;1.90;;;25.80;57.70;;;;;;5004479;28;20589;-80
2021/09/20 10:05:08;;;;;;;3.10;2.40;;;25.70;58.30;;;;;;4990508;28;20584;-80
2021/09/20 10:07:47;;;;;;;2.40;2.20;;;25.50;57.80;;;;;;4995531;28;20676;-79
2021/09/20 10:10:17;;;;;;;3.23;1.90;;;25.30;58.30;;;;;;4990236;28;20622;-79
2021/09/20 10:12:45;;;;;;;3.97;2.10;;;25.10;59.00;;;;;;4990533;28;20571;-79
2021/09/20 10:15:15;;;;;;;2.63;2.43;;;24.90;59.00;;;;;;4990404;28;20675;-79
2021/09/20 10:17:40;;;;;;;2.50;2.30;;;24.70;58.70;;;;;;4990939;28;20570;-79
2021/09/20 10:20:09;;;;;;;2.67;2.27;;;24.30;58.50;;;;;;4993437;28;20617;-79
2021/09/20 10:22:35;;;;;;;2.23;2.03;;;24.00;58.90;;;;;;4992363;28;21018;-79
2021/09/20 10:25:03;;;;;;;2.60;2.40;;;23.90;59.50;;;;;;4992380;28;20602;-79
2021/09/20 10:27:30;;;;;;;2.23;2.00;;;23.70;60.30;;;;;;4992161;28;21043;-79
2021/09/20 10:30:09;;;;;;;2.50;2.30;;;23.70;60.30;;;;;;4992925;28;21143;-80
2021/09/20 10:32:39;;;;;;;5.10;2.30;;;23.60;60.70;;;;;;4992882;28;21121;-79
2021/09/20 10:35:33;;;;;;;2.63;2.43;;;23.60;60.70;;;;;;4990898;28;20614;-81
2021/09/20 10:38:21;;;;;;;2.80;2.40;;;23.50;60.50;;;;;;4968395;28;21018;-79
2021/09/20 10:41:13;;;;;;;4.50;2.33;;;23.30;60.70;;;;;;4989410;28;20614;-79
2021/09/20 10:43:45;;;;;;;2.87;2.10;;;23.30;61.40;;;;;;4996236;28;20979;-81
2021/09/20 10:46:21;;;;;;;2.70;2.23;;;23.20;61.60;;;;;;4996520;28;20665;-79
2021/09/20 10:48:50;;;;;;;2.90;2.40;;;23.20;61.50;;;;;;4994016;28;20597;-80
2021/09/20 10:51:22;;;;;;;2.53;2.13;;;23.20;61.60;;;;;;4994227;28;20577;-78
2021/09/20 10:53:48;;;;;;;2.67;2.13;;;23.10;62.60;;;;;;4994678;28;20632;-77
2021/09/20 10:56:17;;;;;;;3.73;2.73;;;23.10;62.80;;;;;;4978213;28;20719;-77
2021/09/20 10:58:51;;;;;;;3.07;2.27;;;23.20;63.00;;;;;;4994177;28;20994;-76
2021/09/20 11:01:19;;;;;;;2.40;2.20;;;23.10;63.30;;;;;;4994443;28;20909;-77
2021/09/20 11:03:52;;;;;;;4.43;2.33;;;23.20;63.20;;;;;;5013098;28;20592;-77
2021/09/20 11:06:27;;;;;;;2.37;2.10;;;23.10;62.40;;;;;;5015184;28;20660;-77
2021/09/20 11:08:59;;;;;;;2.60;1.70;;;23.10;62.70;;;;;;5014741;28;20676;-78
2021/09/20 11:11:37;;;;;;;2.27;1.50;;;23.10;63.60;;;;;;5013167;28;20573;-78
2021/09/20 11:14:08;;;;;;;2.93;2.00;;;23.20;64.50;;;;;;5014446;28;20572;-78
2021/09/20 11:16:52;;;;;;;2.83;1.90;;;23.40;63.40;;;;;;5014306;28;20623;-77
2021/09/20 11:19:33;;;;;;;2.73;1.80;;;23.40;62.80;;;;;;5013990;28;20611;-78
2021/09/20 11:24:55;;;;;;;3.03;1.93;;;23.60;62.60;;;;;;5014663;28;20561;-77
2021/09/20 11:27:38;;;;;;;2.40;2.10;;;23.70;63.90;;;;;;4996026;28;20601;-78
2021/09/20 11:30:24;;;;;;;2.30;2.10;;;23.80;64.20;;;;;;5012725;28;21238;-77
2021/09/20 11:32:57;;;;;;;2.50;2.30;;;23.90;64.20;;;;;;5013854;28;20557;-78
2021/09/20 11:35:28;;;;;;;3.00;2.57;;;23.80;63.20;;;;;;5013004;28;20644;-78
2021/09/20 11:37:56;;;;;;;2.23;1.97;;;23.50;62.80;;;;;;5012508;28;20581;-77
2021/09/20 11:40:26;;;;;;;5.00;2.40;;;23.40;63.20;;;;;;5012750;28;20653;-78
2021/09/20 11:42:55;;;;;;;3.17;1.90;;;23.40;63.50;;;;;;5014104;28;20589;-78
2021/09/20 11:45:34;;;;;;;2.23;2.03;;;23.40;64.10;;;;;;5012662;28;20588;-78
2021/09/20 11:48:06;;;;;;;2.37;2.17;;;23.40;63.30;;;;;;5011997;28;20569;-78
2021/09/20 11:50:34;;;;;;;5.40;2.27;;;23.30;63.90;;;;;;5013756;28;20593;-78
2021/09/20 11:53:06;;;;;;;1.83;1.40;;;23.40;63.70;;;;;;5013539;28;20565;-78
2021/09/20 11:55:35;;;;;;;2.67;1.73;;;23.50;64.20;;;;;;5011700;28;20652;-78
2021/09/20 11:58:07;;;;;;;3.93;1.63;;;23.60;64.40;;;;;;5017160;28;20669;-78
2021/09/20 12:00:36;;;;;;;2.00;1.60;;;23.70;64.90;;;;;;5013654;28;20597;-78
2021/09/20 12:03:04;;;;;;;2.43;2.23;;;23.70;63.40;;;;;;4995861;28;20613;-78
2021/09/20 12:05:32;;;;;;;2.03;1.83;;;23.80;64.30;;;;;;5013465;28;20569;-78
2021/09/20 12:08:14;;;;;;;2.03;1.40;;;23.80;63.80;;;;;;4995215;28;20569;-78
2021/09/20 12:10:43;;;;;;;1.93;1.73;;;23.80;64.40;;;;;;4995919;28;20612;-77
2021/09/20 12:13:14;;;;;;;2.07;1.87;;;23.70;63.10;;;;;;5013253;28;20680;-78
2021/09/20 12:15:42;;;;;;;2.60;2.40;;;23.70;63.20;;;;;;4995885;28;21426;-78
2021/09/20 12:18:13;;;;;;;2.33;2.13;;;23.60;63.40;;;;;;4994791;28;20948;-78
2021/09/20 12:20:50;;;;;;;2.70;2.10;;;23.50;62.70;;;;;;5013470;28;20909;-77
2021/09/20 12:23:29;;;;;;;2.87;2.67;;;23.30;63.70;;;;;;5011715;28;20562;-77
2021/09/20 12:26:00;;;;;;;2.20;2.00;;;23.30;63.30;;;;;;4994880;28;21144;-78
2021/09/20 12:28:30;;;;;;;3.20;2.57;;;23.20;63.10;;;;;;4995859;28;20640;-77
2021/09/20 12:31:10;;;;;;;2.63;1.77;;;23.10;63.00;;;;;;5026850;28;20661;-77
2021/09/20 12:33:56;;;;;;;2.07;1.80;;;22.90;62.80;;;;;;5015640;28;20722;-78
2021/09/20 12:36:35;;;;;;;2.30;2.03;;;22.80;63.70;;;;;;4998846;28;20625;-78
2021/09/20 12:39:07;;;;;;;2.03;1.83;;;22.80;63.30;;;;;;5013393;28;20625;-78
2021/09/20 12:41:45;;;;;;;2.77;2.30;;;22.80;64.00;;;;;;5013731;28;20562;-78
2021/09/20 12:44:14;;;;;;;1.87;1.67;;;22.80;64.30;;;;;;5013198;28;20570;-78
2021/09/20 12:46:42;;;;;;;2.20;2.00;;;22.80;64.30;;;;;;5012826;28;20624;-78
2021/09/20 12:49:09;;;;;;;3.53;2.20;;;22.80;64.00;;;;;;4994805;28;20663;-78
2021/09/20 12:51:41;;;;;;;2.40;2.03;;;22.70;64.50;;;;;;4995385;28;20569;-78
2021/09/20 12:54:21;;;;;;;3.10;2.80;;;22.70;64.30;;;;;;5012816;28;20558;-78